createdAt,value
2022-09-18T00:00:43.412Z,100604.53
2022-09-18T00:02:47.599Z,100604.34
2022-09-18T00:04:49.246Z,100604.34
2022-09-18T00:06:50.866Z,100604.22
2022-09-18T00:08:53.577Z,100608.34
2022-09-18T00:10:55.288Z,100596.81
2022-09-18T00:12:56.843Z,100605.81
2022-09-18T00:14:59.766Z,100599.88
2022-09-18T00:17:08.433Z,100596.56
2022-09-18T00:19:11.585Z,100599.59
2022-09-18T00:21:15.129Z,100595.16
2022-09-18T00:23:16.630Z,100594.28
2022-09-18T00:25:18.478Z,100594.00
2022-09-18T00:27:20.119Z,100608.72
2022-09-18T00:29:21.642Z,100598.78
2022-09-18T00:31:26.658Z,100596.56
2022-09-18T00:33:28.293Z,100601.81
2022-09-18T00:35:29.877Z,100603.69
2022-09-18T00:37:31.591Z,100595.09
2022-09-18T00:39:33.151Z,100598.28
2022-09-18T00:41:36.565Z,100602.72
2022-09-18T00:43:38.237Z,100596.28
2022-09-18T00:45:39.800Z,100591.06
2022-09-18T00:47:45.877Z,100593.75
2022-09-18T00:49:51.150Z,100593.47
2022-09-18T00:51:55.349Z,100587.75
2022-09-18T00:54:06.524Z,100594.88
2022-09-18T00:56:12.540Z,100592.97
2022-09-18T00:58:14.869Z,100596.38
2022-09-18T01:00:16.613Z,100593.06
2022-09-18T01:02:18.481Z,100596.00
2022-09-18T01:04:21.874Z,100599.88
2022-09-18T01:06:32.922Z,100597.50
2022-09-18T01:08:47.397Z,100604.22
2022-09-18T01:11:03.408Z,100601.31
2022-09-18T01:13:15.086Z,100593.06
2022-09-18T01:15:23.736Z,100606.13
2022-09-18T01:17:31.549Z,100603.22
2022-09-18T01:19:52.682Z,100605.44
2022-09-18T01:22:05.965Z,100603.81
2022-09-18T01:24:44.096Z,100602.72
2022-09-18T01:26:53.350Z,100599.31
2022-09-18T01:28:58.987Z,100603.31
2022-09-18T01:31:06.182Z,100611.13
2022-09-18T01:33:17.144Z,100605.25
2022-09-18T01:35:40.646Z,100603.91
2022-09-18T01:37:48.674Z,100601.09
2022-09-18T01:39:55.861Z,100600.00
2022-09-18T01:41:57.989Z,100606.03
2022-09-18T01:44:06.871Z,100609.25
2022-09-18T01:46:11.617Z,100609.34
2022-09-18T01:48:21.100Z,100603.63
2022-09-18T01:50:27.087Z,100607.44
2022-09-18T01:52:33.028Z,100600.09
2022-09-18T01:54:38.787Z,100590.53
2022-09-18T01:56:46.404Z,100587.84
2022-09-18T01:58:50.185Z,100600.91
2022-09-18T02:00:56.690Z,100592.47
2022-09-18T02:03:02.717Z,100599.00
2022-09-18T02:05:09.305Z,100599.31
2022-09-18T02:07:16.248Z,100598.59
2022-09-18T02:09:17.743Z,100590.47
2022-09-18T02:11:21.353Z,100596.19
2022-09-18T02:13:27.670Z,100595.59
2022-09-18T02:15:31.765Z,100595.91
2022-09-18T02:17:42.225Z,100593.00
2022-09-18T02:19:49.052Z,100593.00
2022-09-18T02:21:52.873Z,100600.22
2022-09-18T02:23:57.839Z,100594.78
2022-09-18T02:26:02.426Z,100591.97
2022-09-18T02:28:07.107Z,100592.69
2022-09-18T02:30:10.354Z,100591.56
2022-09-18T02:32:12.671Z,100591.06
2022-09-18T02:34:17.392Z,100582.81
2022-09-18T02:36:33.435Z,100588.44
2022-09-18T02:38:43.496Z,100589.75
2022-09-18T02:40:55.208Z,100584.56
2022-09-18T02:43:15.137Z,100589.75
2022-09-18T02:45:26.386Z,100584.63
2022-09-18T02:47:38.940Z,100582.94
2022-09-18T02:49:49.795Z,100581.53
2022-09-18T02:51:57.593Z,100586.25
2022-09-18T02:54:07.366Z,100584.31
2022-09-18T02:56:14.765Z,100590.56
2022-09-18T02:58:21.577Z,100584.63
2022-09-18T03:00:24.204Z,100587.75
2022-09-18T03:02:26.375Z,100588.03
2022-09-18T03:04:28.350Z,100586.13
2022-09-18T03:06:31.291Z,100590.25
2022-09-18T03:08:32.999Z,100585.34
2022-09-18T03:10:34.509Z,100588.94
2022-09-18T03:12:36.030Z,100589.22
2022-09-18T03:14:37.621Z,100595.28
2022-09-18T03:16:39.096Z,100586.84
2022-09-18T03:18:40.600Z,100589.53
2022-09-18T03:20:42.825Z,100588.25
2022-09-18T03:22:45.744Z,100581.09
2022-09-18T03:24:47.240Z,100572.50
2022-09-18T03:26:48.803Z,100581.28
2022-09-18T03:28:50.328Z,100576.19
2022-09-18T03:30:51.978Z,100584.91
2022-09-18T03:32:53.548Z,100584.81
2022-09-18T03:34:55.701Z,100587.91
2022-09-18T03:36:57.208Z,100582.69
2022-09-18T03:39:00.193Z,100586.50
2022-09-18T03:41:01.682Z,100583.28
2022-09-18T03:43:03.318Z,100577.34
2022-09-18T03:45:06.361Z,100581.41
2022-09-18T03:47:07.978Z,100574.78
2022-09-18T03:49:09.465Z,100573.66
2022-09-18T03:51:10.944Z,100579.50
2022-09-18T03:53:12.412Z,100578.69
2022-09-18T03:55:15.461Z,100585.22
2022-09-18T03:57:17.079Z,100583.91
2022-09-18T03:59:18.983Z,100586.00
2022-09-18T04:01:20.639Z,100586.81
2022-09-18T04:03:22.239Z,100585.72
2022-09-18T04:05:23.843Z,100590.13
2022-09-18T04:07:25.534Z,100586.84
2022-09-18T04:09:27.031Z,100584.31
2022-09-18T04:11:30.110Z,100584.72
2022-09-18T04:13:31.791Z,100577.28
2022-09-18T04:15:33.367Z,100577.47
2022-09-18T04:17:34.907Z,100578.38
2022-09-18T04:19:36.482Z,100580.41
2022-09-18T04:21:38.103Z,100570.78
2022-09-18T04:23:39.591Z,100575.69
2022-09-18T04:25:41.600Z,100572.47
2022-09-18T04:27:44.686Z,100578.22
2022-09-18T04:29:46.184Z,100583.84
2022-09-18T04:31:47.845Z,100584.69
2022-09-18T04:33:49.478Z,100578.59
2022-09-18T04:35:50.952Z,100579.44
2022-09-18T04:37:52.469Z,100578.41
2022-09-18T04:39:54.073Z,100584.53
2022-09-18T04:41:55.666Z,100588.88
2022-09-18T04:43:58.476Z,100586.88
2022-09-18T04:46:00.020Z,100590.88
2022-09-18T04:48:02.140Z,100581.66
2022-09-18T04:50:04.464Z,100586.91
2022-09-18T04:52:05.962Z,100578.78
2022-09-18T04:54:07.458Z,100578.06
2022-09-18T04:56:09.039Z,100572.56
2022-09-18T04:58:10.988Z,100581.59
2022-09-18T05:00:14.352Z,100575.91
2022-09-18T05:02:15.925Z,100582.94
2022-09-18T05:04:17.548Z,100579.03
2022-09-18T05:06:19.101Z,100583.84
2022-09-18T05:08:20.953Z,100581.97
2022-09-18T05:10:22.599Z,100591.19
2022-09-18T05:12:24.107Z,100592.81
2022-09-18T05:14:25.652Z,100587.78
2022-09-18T05:16:28.664Z,100594.81
2022-09-18T05:18:30.260Z,100593.34
2022-09-18T05:20:33.812Z,100596.63
2022-09-18T05:22:35.432Z,100594.91
2022-09-18T05:24:36.934Z,100592.69
2022-09-18T05:26:38.443Z,100596.75
2022-09-18T05:28:40.348Z,100597.53
2022-09-18T05:30:41.900Z,100604.34
2022-09-18T05:32:44.749Z,100601.03
2022-09-18T05:34:46.609Z,100603.97
2022-09-18T05:36:48.116Z,100610.56
2022-09-18T05:38:49.621Z,100608.06
2022-09-18T05:40:51.192Z,100601.94
2022-09-18T05:42:53.102Z,100609.97
2022-09-18T05:44:56.698Z,100611.16
2022-09-18T05:47:01.637Z,100603.75
2022-09-18T05:49:04.553Z,100606.88
2022-09-18T05:51:06.071Z,100606.69
2022-09-18T05:53:11.084Z,100613.28
2022-09-18T05:55:12.956Z,100609.28
2022-09-18T05:57:14.563Z,100614.91
2022-09-18T05:59:16.154Z,100606.19
2022-09-18T06:01:17.664Z,100603.16
2022-09-18T06:03:19.287Z,100608.50
2022-09-18T06:05:22.543Z,100608.81
2022-09-18T06:07:24.177Z,100611.09
2022-09-18T06:09:25.760Z,100606.13
2022-09-18T06:11:27.644Z,100607.94
2022-09-18T06:13:29.221Z,100608.91
2022-09-18T06:15:31.150Z,100605.72
2022-09-18T06:17:32.910Z,100603.81
2022-09-18T06:19:34.483Z,100618.44
2022-09-18T06:21:37.374Z,100610.31
2022-09-18T06:23:38.949Z,100614.25
2022-09-18T06:25:40.624Z,100612.84
2022-09-18T06:27:42.115Z,100611.41
2022-09-18T06:29:43.702Z,100614.13
2022-09-18T06:31:45.246Z,100608.00
2022-09-18T06:33:47.844Z,100600.91
2022-09-18T06:35:49.392Z,100605.41
2022-09-18T06:37:52.239Z,100604.50
2022-09-18T06:39:53.754Z,100607.41
2022-09-18T06:41:55.478Z,100605.22
2022-09-18T06:43:57.236Z,100608.72
2022-09-18T06:45:58.821Z,100609.22
2022-09-18T06:48:01.413Z,100609.03
2022-09-18T06:50:03.380Z,100612.56
2022-09-18T06:52:05.169Z,100607.41
2022-09-18T06:54:08.092Z,100614.16
2022-09-18T06:56:09.634Z,100610.13
2022-09-18T06:58:11.651Z,100609.66
2022-09-18T07:00:13.578Z,100615.97
2022-09-18T07:02:19.432Z,100613.88
2022-09-18T07:04:21.321Z,100610.44
2022-09-18T07:06:25.814Z,100608.00
2022-09-18T07:08:27.294Z,100616.78
2022-09-18T07:10:30.206Z,100612.97
2022-09-18T07:12:31.768Z,100616.19
2022-09-18T07:14:33.298Z,100616.38
2022-09-18T07:16:35.303Z,100611.75
2022-09-18T07:18:36.939Z,100615.78
2022-09-18T07:20:38.496Z,100612.06
2022-09-18T07:22:44.967Z,100610.94
2022-09-18T07:24:48.744Z,100614.47
2022-09-18T07:26:51.582Z,100617.91
2022-09-18T07:28:53.112Z,100625.72
2022-09-18T07:30:55.017Z,100629.13
2022-09-18T07:32:56.572Z,100628.31
2022-09-18T07:34:58.128Z,100629.81
2022-09-18T07:37:02.758Z,100627.25
2022-09-18T07:39:04.578Z,100633.47
2022-09-18T07:41:07.916Z,100627.41
2022-09-18T07:43:11.278Z,100626.84
2022-09-18T07:45:12.823Z,100643.53
2022-09-18T07:47:14.325Z,100630.19
2022-09-18T07:49:16.022Z,100625.13
2022-09-18T07:51:18.827Z,100628.03
2022-09-18T07:53:21.825Z,100625.53
2022-09-18T07:55:25.707Z,100623.66
2022-09-18T07:57:27.265Z,100622.22
2022-09-18T07:59:30.182Z,100626.09
2022-09-18T08:01:33.583Z,100634.97
2022-09-18T08:03:41.025Z,100626.44
2022-09-18T08:05:43.015Z,100626.94
2022-09-18T08:07:44.580Z,100633.47
2022-09-18T08:09:46.226Z,100634.16
2022-09-18T08:11:51.043Z,100629.16
2022-09-18T08:13:52.809Z,100623.72
2022-09-18T08:15:55.722Z,100626.72
2022-09-18T08:17:57.356Z,100624.81
2022-09-18T08:19:59.102Z,100629.63
2022-09-18T08:22:01.045Z,100636.56
2022-09-18T08:24:03.073Z,100634.16
2022-09-18T08:26:05.518Z,100631.44
2022-09-18T08:28:07.034Z,100635.47
2022-09-18T08:30:10.893Z,100631.13
2022-09-18T08:32:13.804Z,100630.72
2022-09-18T08:34:15.319Z,100630.50
2022-09-18T08:36:16.836Z,100619.81
2022-09-18T08:38:18.579Z,100621.59
2022-09-18T08:40:22.628Z,100621.75
2022-09-18T08:42:30.783Z,100617.22
2022-09-18T08:44:42.601Z,100621.09
2022-09-18T08:46:49.039Z,100624.63
2022-09-18T08:48:59.313Z,100635.00
2022-09-18T08:51:06.858Z,100637.72
2022-09-18T08:53:16.573Z,100628.84
2022-09-18T08:55:24.334Z,100625.94
2022-09-18T08:57:30.684Z,100627.16
2022-09-18T08:59:38.388Z,100634.50
2022-09-18T09:01:46.811Z,100633.06
2022-09-18T09:03:57.383Z,100636.78
2022-09-18T09:06:05.219Z,100629.06
2022-09-18T09:08:32.914Z,100639.31
2022-09-18T09:10:47.335Z,100634.59
2022-09-18T09:12:56.978Z,100636.09
2022-09-18T09:15:21.803Z,100625.84
2022-09-18T09:17:38.003Z,100636.97
2022-09-18T09:19:47.113Z,100638.59
2022-09-18T09:21:57.826Z,100630.75
2022-09-18T09:24:13.250Z,100628.84
2022-09-18T09:26:18.185Z,100628.13
2022-09-18T09:28:24.867Z,100632.41
2022-09-18T09:30:33.286Z,100624.84
2022-09-18T09:32:39.866Z,100619.59
2022-09-18T09:34:48.183Z,100626.94
2022-09-18T09:36:52.958Z,100624.06
2022-09-18T09:38:59.991Z,100626.28
2022-09-18T09:41:12.458Z,100619.59
2022-09-18T09:43:20.148Z,100622.56
2022-09-18T09:45:27.649Z,100623.66
2022-09-18T09:47:38.355Z,100621.81
2022-09-18T09:49:50.679Z,100615.34
2022-09-18T09:52:06.925Z,100621.72
2022-09-18T09:54:12.309Z,100616.28
2022-09-18T09:56:20.522Z,100616.16
2022-09-18T09:58:35.743Z,100618.69
2022-09-18T10:00:43.504Z,100613.75
2022-09-18T10:03:01.134Z,100612.06
2022-09-18T10:05:16.193Z,100607.16
2022-09-18T10:07:23.633Z,100609.69
2022-09-18T10:09:39.585Z,100615.13
2022-09-18T10:11:43.313Z,100606.00
2022-09-18T10:13:49.763Z,100603.19
2022-09-18T10:15:55.909Z,100607.13
2022-09-18T10:18:01.668Z,100609.03
2022-09-18T10:20:06.167Z,100622.34
2022-09-18T10:22:11.696Z,100607.88
2022-09-18T10:24:20.617Z,100614.69
2022-09-18T10:26:26.323Z,100609.03
2022-09-18T10:28:28.345Z,100610.09
2022-09-18T10:30:29.909Z,100609.31
2022-09-18T10:32:33.645Z,100609.91
2022-09-18T10:34:40.084Z,100606.88
2022-09-18T10:36:44.510Z,100601.28
2022-09-18T10:38:46.420Z,100602.38
2022-09-18T10:40:48.067Z,100599.94
2022-09-18T10:42:54.232Z,100603.31
2022-09-18T10:45:01.436Z,100594.06
2022-09-18T10:47:07.639Z,100591.78
2022-09-18T10:49:19.171Z,100589.06
2022-09-18T10:51:22.798Z,100587.78
2022-09-18T10:53:30.463Z,100582.50
2022-09-18T10:55:32.062Z,100583.50
2022-09-18T10:57:35.318Z,100587.78
2022-09-18T10:59:37.046Z,100580.63
2022-09-18T11:01:41.483Z,100592.84
2022-09-18T11:03:59.468Z,100592.91
2022-09-18T11:06:03.998Z,100599.81
2022-09-18T11:08:13.283Z,100590.50
2022-09-18T11:10:19.061Z,100595.50
2022-09-18T11:12:22.678Z,100589.59
2022-09-18T11:14:26.956Z,100580.78
2022-09-18T11:16:31.169Z,100586.56
2022-09-18T11:18:33.358Z,100575.69
2022-09-18T11:20:41.870Z,100578.53
2022-09-18T11:22:44.073Z,100576.91
2022-09-18T11:24:47.520Z,100580.28
2022-09-18T11:26:52.206Z,100578.06
2022-09-18T11:29:05.274Z,100572.78
2022-09-18T11:31:13.663Z,100570.88
2022-09-18T11:33:24.684Z,100571.47
2022-09-18T11:35:28.643Z,100551.25
2022-09-18T11:37:34.800Z,100569.16
2022-09-18T11:39:41.344Z,100562.59
2022-09-18T11:41:43.867Z,100553.47
2022-09-18T11:43:59.896Z,100551.88
2022-09-18T11:46:13.314Z,100555.88
2022-09-18T11:48:23.930Z,100545.16
2022-09-18T11:50:29.375Z,100545.78
2022-09-18T11:52:36.811Z,100537.00
2022-09-18T11:54:45.678Z,100542.09
2022-09-18T11:56:52.054Z,100539.34
2022-09-18T11:59:01.326Z,100545.88
2022-09-18T12:01:14.357Z,100553.75
2022-09-18T12:03:22.224Z,100548.63
2022-09-18T12:05:28.338Z,100545.91
2022-09-18T12:07:40.356Z,100541.13
2022-09-18T12:09:47.429Z,100544.28
2022-09-18T12:11:56.415Z,100539.97
2022-09-18T12:14:11.564Z,100535.03
2022-09-18T12:16:19.660Z,100541.78
2022-09-18T12:18:25.869Z,100532.09
2022-09-18T12:20:31.334Z,100532.38
2022-09-18T12:22:41.461Z,100533.38
2022-09-18T12:24:43.037Z,100530.66
2022-09-18T12:26:53.001Z,100536.69
2022-09-18T12:29:11.528Z,100539.34
2022-09-18T12:31:20.951Z,100535.53
2022-09-18T12:33:34.429Z,100525.91
2022-09-18T12:35:51.228Z,100526.03
2022-09-18T12:38:03.678Z,100526.66
2022-09-18T12:40:24.250Z,100513.59
2022-09-18T12:42:36.482Z,100517.75
2022-09-18T12:44:55.196Z,100520.69
2022-09-18T12:47:12.481Z,100518.25
2022-09-18T12:49:34.158Z,100520.03
2022-09-18T12:51:44.508Z,100512.69
2022-09-18T12:53:55.340Z,100515.69
2022-09-18T12:56:11.122Z,100507.84
2022-09-18T12:58:30.780Z,100503.53
2022-09-18T13:00:36.783Z,100505.47
2022-09-18T13:02:48.123Z,100509.91
2022-09-18T13:05:00.379Z,100507.91
2022-09-18T13:07:06.953Z,100502.69
2022-09-18T13:09:15.593Z,100502.69
2022-09-18T13:11:30.034Z,100496.00
2022-09-18T13:13:38.216Z,100498.41
2022-09-18T13:15:46.042Z,100494.69
2022-09-18T13:17:52.337Z,100492.56
2022-09-18T13:19:59.483Z,100487.81
2022-09-18T13:22:05.681Z,100499.69
2022-09-18T13:24:13.417Z,100488.47
2022-09-18T13:26:15.685Z,100483.03
2022-09-18T13:28:20.276Z,100485.63
2022-09-18T13:30:27.518Z,100487.53
2022-09-18T13:32:41.758Z,100485.13
2022-09-18T13:34:49.654Z,100481.63
2022-09-18T13:36:51.275Z,100480.19
2022-09-18T13:38:53.614Z,100481.59
2022-09-18T13:41:01.313Z,100484.31
2022-09-18T13:43:30.369Z,100480.78
2022-09-18T13:45:37.788Z,100474.75
2022-09-18T13:48:02.483Z,100469.56
2022-09-18T13:50:05.295Z,100476.00
2022-09-18T13:52:28.526Z,100473.13
2022-09-18T13:54:30.201Z,100475.66
2022-09-18T13:57:17.414Z,100471.38
2022-09-18T13:59:22.318Z,100467.88
2022-09-18T14:02:02.975Z,100466.28
2022-09-18T14:04:58.412Z,100470.06
2022-09-18T14:06:59.927Z,100467.22
2022-09-18T14:09:02.313Z,100471.22
2022-09-18T14:11:21.544Z,100470.25
2022-09-18T14:13:38.306Z,100462.09
2022-09-18T14:15:50.496Z,100465.31
2022-09-18T14:18:05.861Z,100464.81
2022-09-18T14:20:19.699Z,100458.28
2022-09-18T14:22:23.649Z,100450.59
2022-09-18T14:24:55.342Z,100464.34
2022-09-18T14:27:00.629Z,100459.56
2022-09-18T14:29:09.907Z,100463.38
2022-09-18T14:31:17.965Z,100461.63
2022-09-18T14:33:20.787Z,100460.84
2022-09-18T14:35:31.508Z,100456.84
2022-09-18T14:37:36.058Z,100454.94
2022-09-18T14:39:38.218Z,100453.16
2022-09-18T14:41:39.867Z,100453.97
2022-09-18T14:43:48.250Z,100454.94
2022-09-18T14:45:52.076Z,100455.41
2022-09-18T14:47:57.382Z,100445.66
2022-09-18T14:49:58.958Z,100449.16
2022-09-18T14:52:05.434Z,100445.63
2022-09-18T14:54:20.398Z,100447.38
2022-09-18T14:56:26.716Z,100438.75
2022-09-18T14:58:33.123Z,100434.59
2022-09-18T15:00:37.367Z,100437.34
2022-09-18T15:02:40.563Z,100437.00
2022-09-18T15:04:42.483Z,100437.34
2022-09-18T15:06:46.539Z,100427.25
2022-09-18T15:08:50.916Z,100429.34
2022-09-18T15:10:56.431Z,100427.13
2022-09-18T15:12:59.552Z,100422.47
2022-09-18T15:15:24.997Z,100425.50
2022-09-18T15:17:28.256Z,100423.72
2022-09-18T15:19:32.610Z,100421.03
2022-09-18T15:21:45.964Z,100418.28
2022-09-18T15:23:47.769Z,100419.13
2022-09-18T15:25:52.368Z,100414.16
2022-09-18T15:27:56.689Z,100411.09
2022-09-18T15:30:01.824Z,100409.50
2022-09-18T15:32:05.092Z,100405.03
2022-09-18T15:34:13.145Z,100404.69
2022-09-18T15:36:24.541Z,100402.31
2022-09-18T15:38:33.776Z,100408.25
2022-09-18T15:40:38.210Z,100412.84
2022-09-18T15:42:50.821Z,100411.91
2022-09-18T15:45:15.447Z,100402.44
2022-09-18T15:47:30.112Z,100397.19
2022-09-18T15:49:34.605Z,100396.06
2022-09-18T15:51:37.688Z,100403.56
2022-09-18T15:53:39.450Z,100393.50
2022-09-18T15:55:53.991Z,100399.59
2022-09-18T15:57:58.882Z,100393.81
2022-09-18T16:00:00.598Z,100405.19
2022-09-18T16:02:18.173Z,100390.00
2022-09-18T16:04:23.059Z,100391.25
2022-09-18T16:06:27.241Z,100389.34
2022-09-18T16:08:32.385Z,100396.53
2022-09-18T16:10:48.394Z,100391.91
2022-09-18T16:12:50.423Z,100396.38
2022-09-18T16:15:13.312Z,100389.69
2022-09-18T16:17:37.047Z,100393.19
2022-09-18T16:19:43.369Z,100385.81
2022-09-18T16:21:44.960Z,100391.25
2022-09-18T16:23:49.964Z,100400.06
2022-09-18T16:26:03.315Z,100396.69
2022-09-18T16:28:14.726Z,100396.56
2022-09-18T16:30:16.354Z,100393.69
2022-09-18T16:32:17.890Z,100390.16
2022-09-18T16:34:21.835Z,100383.09
2022-09-18T16:36:29.880Z,100387.13
2022-09-18T16:38:31.811Z,100386.63
2022-09-18T16:40:35.314Z,100384.06
2022-09-18T16:42:37.241Z,100379.59
2022-09-18T16:44:38.760Z,100379.28
2022-09-18T16:46:43.033Z,100374.47
2022-09-18T16:48:44.674Z,100374.16
2022-09-18T16:50:46.220Z,100380.25
2022-09-18T16:52:48.925Z,100378.50
2022-09-18T16:54:50.486Z,100374.31
2022-09-18T16:57:00.957Z,100378.47
2022-09-18T16:59:05.297Z,100377.53
2022-09-18T17:01:07.462Z,100382.00
2022-09-18T17:03:09.287Z,100379.44
2022-09-18T17:05:10.890Z,100382.47
2022-09-18T17:07:15.148Z,100376.06
2022-09-18T17:09:16.715Z,100377.53
2022-09-18T17:11:18.681Z,100372.88
2022-09-18T17:13:22.222Z,100366.47
2022-09-18T17:15:24.171Z,100370.94
2022-09-18T17:17:25.954Z,100372.72
2022-09-18T17:19:29.766Z,100375.44
2022-09-18T17:21:31.512Z,100373.00
2022-09-18T17:23:33.611Z,100376.72
2022-09-18T17:25:35.298Z,100371.28
2022-09-18T17:27:41.732Z,100382.78
2022-09-18T17:29:46.517Z,100374.63
2022-09-18T17:31:48.401Z,100384.22
2022-09-18T17:33:53.741Z,100382.78
2022-09-18T17:35:55.566Z,100385.16
2022-09-18T17:37:58.061Z,100383.91
2022-09-18T17:40:01.577Z,100390.13
2022-09-18T17:42:03.445Z,100388.69
2022-09-18T17:44:05.786Z,100390.28
2022-09-18T17:46:11.259Z,100391.91
2022-09-18T17:48:12.955Z,100391.06
2022-09-18T17:50:14.743Z,100383.25
2022-09-18T17:52:16.791Z,100379.41
2022-09-18T17:54:18.559Z,100375.56
2022-09-18T17:56:20.525Z,100376.81
2022-09-18T17:58:22.198Z,100379.53
2022-09-18T18:00:24.040Z,100384.59
2022-09-18T18:02:27.187Z,100373.88
2022-09-18T18:04:29.701Z,100374.69
2022-09-18T18:06:31.498Z,100369.25
2022-09-18T18:08:33.889Z,100364.91
2022-09-18T18:10:35.939Z,100364.41
2022-09-18T18:12:37.503Z,100368.72
2022-09-18T18:14:39.142Z,100366.03
2022-09-18T18:16:41.052Z,100364.28
2022-09-18T18:18:44.347Z,100366.34
2022-09-18T18:20:49.543Z,100367.94
2022-09-18T18:22:51.593Z,100369.22
2022-09-18T18:24:53.322Z,100376.59
2022-09-18T18:26:55.818Z,100375.78
2022-09-18T18:28:57.713Z,100373.50
2022-09-18T18:31:00.660Z,100379.44
2022-09-18T18:33:02.656Z,100377.22
2022-09-18T18:35:06.507Z,100380.09
2022-09-18T18:37:08.371Z,100381.53
2022-09-18T18:39:10.875Z,100386.59
2022-09-18T18:41:14.065Z,100386.59
2022-09-18T18:43:18.048Z,100382.22
2022-09-18T18:45:21.146Z,100378.50
2022-09-18T18:47:22.804Z,100385.13
2022-09-18T18:49:26.124Z,100381.94
2022-09-18T18:51:32.537Z,100381.59
2022-09-18T18:53:42.339Z,100386.69
2022-09-18T18:55:48.251Z,100385.13
2022-09-18T18:57:50.068Z,100385.75
2022-09-18T18:59:52.055Z,100380.00
2022-09-18T19:01:54.887Z,100381.00
2022-09-18T19:03:58.636Z,100380.16
2022-09-18T19:06:00.284Z,100384.31
2022-09-18T19:08:03.795Z,100388.31
2022-09-18T19:10:06.239Z,100377.00
2022-09-18T19:12:09.666Z,100382.22
2022-09-18T19:14:12.935Z,100379.06
2022-09-18T19:16:14.879Z,100379.56
2022-09-18T19:18:16.690Z,100382.59
2022-09-18T19:20:19.346Z,100378.28
2022-09-18T19:22:21.162Z,100381.00
2022-09-18T19:24:24.607Z,100385.91
2022-09-18T19:26:28.509Z,100383.53
2022-09-18T19:28:30.866Z,100379.31
2022-09-18T19:30:35.411Z,100379.72
2022-09-18T19:32:36.999Z,100378.38
2022-09-18T19:34:38.788Z,100382.72
2022-09-18T19:36:40.812Z,100385.13
2022-09-18T19:38:42.612Z,100379.22
2022-09-18T19:40:47.829Z,100384.31
2022-09-18T19:42:56.357Z,100384.19
2022-09-18T19:45:03.119Z,100383.88
2022-09-18T19:47:07.491Z,100385.00
2022-09-18T19:49:16.158Z,100391.22
2022-09-18T19:51:17.995Z,100393.94
2022-09-18T19:53:20.115Z,100394.78
2022-09-18T19:55:22.126Z,100394.63
2022-09-18T19:57:26.572Z,100401.28
2022-09-18T19:59:28.717Z,100393.78
2022-09-18T20:01:30.661Z,100397.34
2022-09-18T20:03:32.423Z,100389.31
2022-09-18T20:05:37.928Z,100393.31
2022-09-18T20:07:40.660Z,100393.13
2022-09-18T20:09:42.412Z,100395.53
2022-09-18T20:11:48.134Z,100403.81
2022-09-18T20:13:53.386Z,100405.91
2022-09-18T20:16:02.752Z,100411.63
2022-09-18T20:18:06.833Z,100415.34
2022-09-18T20:20:13.287Z,100424.72
2022-09-18T20:22:18.940Z,100431.56
2022-09-18T20:24:20.930Z,100430.63
2022-09-18T20:26:23.019Z,100431.44
2022-09-18T20:28:25.073Z,100429.53
2022-09-18T20:30:28.213Z,100444.09
2022-09-18T20:32:29.915Z,100441.81
2022-09-18T20:34:32.021Z,100441.56
2022-09-18T20:36:33.918Z,100437.38
2022-09-18T20:38:37.261Z,100444.22
2022-09-18T20:40:39.625Z,100439.09
2022-09-18T20:42:41.290Z,100438.50
2022-09-18T20:44:42.861Z,100441.00
2022-09-18T20:46:45.884Z,100439.53
2022-09-18T20:48:48.964Z,100435.22
2022-09-18T20:50:50.805Z,100451.81
2022-09-18T20:52:52.396Z,100475.66
2022-09-18T20:54:54.020Z,100481.97
2022-09-18T20:56:56.089Z,100480.84
2022-09-18T20:58:58.236Z,100486.53
2022-09-18T21:01:05.677Z,100494.28
2022-09-18T21:03:08.848Z,100510.56
2022-09-18T21:05:11.674Z,100514.81
2022-09-18T21:07:13.285Z,100514.63
2022-09-18T21:09:15.159Z,100518.56
2022-09-18T21:11:18.731Z,100519.88
2022-09-18T21:13:20.381Z,100519.47
2022-09-18T21:15:22.033Z,100516.28
2022-09-18T21:17:23.750Z,100526.50
2022-09-18T21:19:29.284Z,100526.63
2022-09-18T21:21:33.070Z,100530.50
2022-09-18T21:23:35.249Z,100529.28
2022-09-18T21:25:36.803Z,100540.75
2022-09-18T21:27:38.363Z,100538.63
2022-09-18T21:29:39.888Z,100537.03
2022-09-18T21:31:42.643Z,100540.22
2022-09-18T21:33:44.491Z,100543.81
2022-09-18T21:35:54.281Z,100541.09
2022-09-18T21:37:55.836Z,100538.81
2022-09-18T21:39:57.398Z,100537.38
2022-09-18T21:42:00.329Z,100531.16
2022-09-18T21:44:02.104Z,100529.59
2022-09-18T21:46:05.983Z,100535.19
2022-09-18T21:48:07.577Z,100534.06
2022-09-18T21:50:09.404Z,100532.53
2022-09-18T21:52:12.339Z,100526.75
2022-09-18T21:54:16.162Z,100529.88
2022-09-18T21:56:19.239Z,100526.75
2022-09-18T21:58:20.716Z,100539.69
2022-09-18T22:00:22.251Z,100549.59
2022-09-18T22:02:24.053Z,100548.56
2022-09-18T22:04:27.674Z,100554.34
2022-09-18T22:06:31.422Z,100554.75
2022-09-18T22:08:34.371Z,100543.06
2022-09-18T22:10:36.012Z,100553.97
2022-09-18T22:12:40.082Z,100556.84
2022-09-18T22:14:41.712Z,100558.59
2022-09-18T22:16:43.627Z,100561.59
2022-09-18T22:18:45.494Z,100563.91
2022-09-18T22:20:47.079Z,100559.56
2022-09-18T22:22:48.602Z,100557.38
2022-09-18T22:24:51.510Z,100565.00
2022-09-18T22:26:55.593Z,100560.16
2022-09-18T22:28:57.125Z,100566.09
2022-09-18T22:30:58.829Z,100567.69
2022-09-18T22:33:00.433Z,100566.34
2022-09-18T22:35:02.043Z,100562.56
2022-09-18T22:37:04.712Z,100561.97
2022-09-18T22:39:06.734Z,100560.56
2022-09-18T22:41:10.484Z,100566.59
2022-09-18T22:43:12.109Z,100571.41
2022-09-18T22:45:13.802Z,100573.38
2022-09-18T22:47:15.332Z,100574.94
2022-09-18T22:49:18.282Z,100579.03
2022-09-18T22:51:22.242Z,100578.53
2022-09-18T22:53:23.741Z,100581.75
2022-09-18T22:55:25.278Z,100588.00
2022-09-18T22:57:28.242Z,100587.22
2022-09-18T22:59:29.741Z,100587.38
2022-09-18T23:01:34.015Z,100582.75
2022-09-18T23:03:35.781Z,100582.00
2022-09-18T23:05:37.563Z,100581.28
2022-09-18T23:07:39.160Z,100579.25
2022-09-18T23:09:40.689Z,100589.72
2022-09-18T23:11:43.635Z,100585.25
2022-09-18T23:13:49.699Z,100585.25
2022-09-18T23:15:51.288Z,100589.13
2022-09-18T23:17:52.798Z,100585.31
2022-09-18T23:19:54.321Z,100594.09
2022-09-18T23:21:56.144Z,100589.56
2022-09-18T23:23:59.446Z,100596.16
2022-09-18T23:26:06.010Z,100596.19
2022-09-18T23:28:07.495Z,100595.53
2022-09-18T23:30:11.601Z,100604.25
2022-09-18T23:32:13.232Z,100598.59
2022-09-18T23:34:16.633Z,100600.22
2022-09-18T23:36:20.762Z,100591.47
2022-09-18T23:38:22.287Z,100590.97
2022-09-18T23:40:23.934Z,100598.38
2022-09-18T23:42:25.465Z,100595.25
2022-09-18T23:44:28.147Z,100587.19
2022-09-18T23:46:31.825Z,100595.78
2022-09-18T23:48:33.397Z,100592.94